KTOP

Philip Billard Municipal Airport

Topeka, Kansas, USA
METAR KTOP 200453Z AUTO 05003KT 10SM CLR 23/22 A2989 RMK AO2 SLP112 T02330222
Observed Flight Rules
Jun-20 @ 04:53 UTC (46 minutes ago) Visual Flight Rules
Wind Visibility Clouds
50° at 3 knots 10 miles
  • Clear skies
Temperatures Readings
Current 23°C / 73°F
Dewpoint 22°C / 72°F
Humidity 94%
Altimeter 29.89" Hg
Pressure 1011.2 hPa
Elevation 268
METAR KTOP 200453Z AUTO 05003KT 10SM CLR 23/22 A2989 RMK AO2 SLP112 T02330222
Observed Flight Rules
Jun-20 @ 04:53 UTC
(46 minutes ago)
VFR
Wind Visibility
50° at 3 knots 10 miles
Clouds
  • Clear skies
Temperature Dewpoint
23°C / 73°F 22°C / 72°F
Humidity Altimeter Pressure
94% 29.89" Hg 1011.2 hPa